sensor_id;sensor_type;location;lat;lon;timestamp;temperature;humidity
24262;DHT22;12385;51.412;5.540;2023-06-26T00:00:06;25.40;92.20
24262;DHT22;12385;51.412;5.540;2023-06-26T00:02:32;25.40;92.30
24262;DHT22;12385;51.412;5.540;2023-06-26T00:04:59;25.30;92.50
24262;DHT22;12385;51.412;5.540;2023-06-26T00:07:28;25.30;92.80
24262;DHT22;12385;51.412;5.540;2023-06-26T00:09:54;25.10;93.10
24262;DHT22;12385;51.412;5.540;2023-06-26T00:12:21;25.00;93.70
24262;DHT22;12385;51.412;5.540;2023-06-26T00:14:47;24.90;94.40
24262;DHT22;12385;51.412;5.540;2023-06-26T00:17:12;24.80;94.90
24262;DHT22;12385;51.412;5.540;2023-06-26T00:19:38;24.70;95.30
24262;DHT22;12385;51.412;5.540;2023-06-26T00:22:04;24.60;95.60
24262;DHT22;12385;51.412;5.540;2023-06-26T00:24:29;24.60;95.90
24262;DHT22;12385;51.412;5.540;2023-06-26T00:26:56;24.50;96.10
24262;DHT22;12385;51.412;5.540;2023-06-26T00:29:22;24.40;96.30
24262;DHT22;12385;51.412;5.540;2023-06-26T00:31:47;24.30;96.70
24262;DHT22;12385;51.412;5.540;2023-06-26T00:34:13;24.20;96.90
24262;DHT22;12385;51.412;5.540;2023-06-26T00:36:40;24.20;97.00
24262;DHT22;12385;51.412;5.540;2023-06-26T00:39:09;24.20;97.30
24262;DHT22;12385;51.412;5.540;2023-06-26T00:41:37;24.20;97.60
24262;DHT22;12385;51.412;5.540;2023-06-26T00:44:06;24.10;97.60
24262;DHT22;12385;51.412;5.540;2023-06-26T00:46:32;24.10;97.90
24262;DHT22;12385;51.412;5.540;2023-06-26T00:49:01;24.10;98.20
24262;DHT22;12385;51.412;5.540;2023-06-26T00:51:29;24.00;98.30
24262;DHT22;12385;51.412;5.540;2023-06-26T00:53:55;24.00;98.50
24262;DHT22;12385;51.412;5.540;2023-06-26T00:56:22;24.00;98.70
24262;DHT22;12385;51.412;5.540;2023-06-26T00:58:47;23.90;98.80
24262;DHT22;12385;51.412;5.540;2023-06-26T01:01:13;23.80;99.10
24262;DHT22;12385;51.412;5.540;2023-06-26T01:03:46;23.80;99.40
24262;DHT22;12385;51.412;5.540;2023-06-26T01:06:17;23.70;99.30
24262;DHT22;12385;51.412;5.540;2023-06-26T01:08:44;23.70;99.50
24262;DHT22;12385;51.412;5.540;2023-06-26T01:11:11;23.60;99.50
24262;DHT22;12385;51.412;5.540;2023-06-26T01:13:39;23.60;99.30
24262;DHT22;12385;51.412;5.540;2023-06-26T01:16:05;23.60;99.30
24262;DHT22;12385;51.412;5.540;2023-06-26T01:18:32;23.60;99.50
24262;DHT22;12385;51.412;5.540;2023-06-26T01:20:59;23.60;99.50
24262;DHT22;12385;51.412;5.540;2023-06-26T01:26:32;23.60;98.80
24262;DHT22;12385;51.412;5.540;2023-06-26T01:29:02;23.60;98.80
24262;DHT22;12385;51.412;5.540;2023-06-26T01:31:29;23.60;98.40
24262;DHT22;12385;51.412;5.540;2023-06-26T01:33:58;23.60;98.50
24262;DHT22;12385;51.412;5.540;2023-06-26T01:36:25;23.50;97.90
24262;DHT22;12385;51.412;5.540;2023-06-26T01:38:51;23.50;97.70
24262;DHT22;12385;51.412;5.540;2023-06-26T01:41:18;23.50;97.20
24262;DHT22;12385;51.412;5.540;2023-06-26T01:44:10;23.50;97.10
24262;DHT22;12385;51.412;5.540;2023-06-26T01:46:53;23.50;96.40
24262;DHT22;12385;51.412;5.540;2023-06-26T01:54:52;23.40;96.00
24262;DHT22;12385;51.412;5.540;2023-06-26T01:57:20;23.40;95.70
24262;DHT22;12385;51.412;5.540;2023-06-26T01:59:48;23.30;95.30
24262;DHT22;12385;51.412;5.540;2023-06-26T02:02:14;23.20;94.90
24262;DHT22;12385;51.412;5.540;2023-06-26T02:04:40;23.20;94.60
24262;DHT22;12385;51.412;5.540;2023-06-26T02:07:06;23.20;94.70
24262;DHT22;12385;51.412;5.540;2023-06-26T02:09:32;23.10;94.40
24262;DHT22;12385;51.412;5.540;2023-06-26T02:11:57;23.20;94.40
24262;DHT22;12385;51.412;5.540;2023-06-26T02:14:23;23.10;94.00
24262;DHT22;12385;51.412;5.540;2023-06-26T02:16:49;23.10;94.10
24262;DHT22;12385;51.412;5.540;2023-06-26T02:19:14;23.00;93.90
24262;DHT22;12385;51.412;5.540;2023-06-26T02:21:47;23.00;94.00
24262;DHT22;12385;51.412;5.540;2023-06-26T02:24:14;23.00;93.80
24262;DHT22;12385;51.412;5.540;2023-06-26T02:26:39;22.90;93.80
24262;DHT22;12385;51.412;5.540;2023-06-26T02:29:05;22.90;93.90
24262;DHT22;12385;51.412;5.540;2023-06-26T02:31:30;22.90;93.80
24262;DHT22;12385;51.412;5.540;2023-06-26T02:33:56;22.90;94.20
24262;DHT22;12385;51.412;5.540;2023-06-26T02:36:22;22.80;94.10
24262;DHT22;12385;51.412;5.540;2023-06-26T02:38:48;22.70;94.20
24262;DHT22;12385;51.412;5.540;2023-06-26T02:41:13;22.70;94.50
24262;DHT22;12385;51.412;5.540;2023-06-26T02:43:39;22.70;94.40
24262;DHT22;12385;51.412;5.540;2023-06-26T02:46:05;22.60;94.80
24262;DHT22;12385;51.412;5.540;2023-06-26T02:48:30;22.60;95.10
24262;DHT22;12385;51.412;5.540;2023-06-26T02:50:56;22.50;95.30
24262;DHT22;12385;51.412;5.540;2023-06-26T02:53:22;22.50;95.40
24262;DHT22;12385;51.412;5.540;2023-06-26T02:55:47;22.30;95.80
24262;DHT22;12385;51.412;5.540;2023-06-26T02:58:13;22.30;96.00
24262;DHT22;12385;51.412;5.540;2023-06-26T03:00:39;22.20;96.20
24262;DHT22;12385;51.412;5.540;2023-06-26T03:03:07;22.20;96.70
24262;DHT22;12385;51.412;5.540;2023-06-26T03:05:33;22.20;96.50
24262;DHT22;12385;51.412;5.540;2023-06-26T03:07:59;22.20;96.60
24262;DHT22;12385;51.412;5.540;2023-06-26T03:10:25;22.10;96.80
24262;DHT22;12385;51.412;5.540;2023-06-26T03:12:50;22.10;97.00
24262;DHT22;12385;51.412;5.540;2023-06-26T03:15:16;22.10;97.10
24262;DHT22;12385;51.412;5.540;2023-06-26T03:17:42;22.10;97.20
24262;DHT22;12385;51.412;5.540;2023-06-26T03:20:08;22.00;97.20
24262;DHT22;12385;51.412;5.540;2023-06-26T03:22:34;22.00;97.40
24262;DHT22;12385;51.412;5.540;2023-06-26T03:24:59;22.00;97.60
24262;DHT22;12385;51.412;5.540;2023-06-26T03:27:25;22.00;97.60
24262;DHT22;12385;51.412;5.540;2023-06-26T03:29:52;22.00;97.90
24262;DHT22;12385;51.412;5.540;2023-06-26T03:32:18;21.90;98.20
24262;DHT22;12385;51.412;5.540;2023-06-26T03:34:43;21.90;98.30
24262;DHT22;12385;51.412;5.540;2023-06-26T03:37:09;21.90;98.60
24262;DHT22;12385;51.412;5.540;2023-06-26T03:39:35;21.80;98.90
24262;DHT22;12385;51.412;5.540;2023-06-26T03:42:00;21.80;99.10
24262;DHT22;12385;51.412;5.540;2023-06-26T03:44:27;21.80;99.30
24262;DHT22;12385;51.412;5.540;2023-06-26T03:46:53;21.70;99.50
24262;DHT22;12385;51.412;5.540;2023-06-26T03:49:19;21.70;99.70
24262;DHT22;12385;51.412;5.540;2023-06-26T03:51:45;21.70;99.90
24262;DHT22;12385;51.412;5.540;2023-06-26T03:54:11;21.60;99.90
24262;DHT22;12385;51.412;5.540;2023-06-26T03:56:37;21.60;99.90
24262;DHT22;12385;51.412;5.540;2023-06-26T03:59:03;21.60;99.90
24262;DHT22;12385;51.412;5.540;2023-06-26T04:01:30;21.60;99.90
24262;DHT22;12385;51.412;5.540;2023-06-26T04:03:55;21.50;99.90
24262;DHT22;12385;51.412;5.540;2023-06-26T04:06:21;21.50;99.90
24262;DHT22;12385;51.412;5.540;2023-06-26T04:08:48;21.40;99.90
24262;DHT22;12385;51.412;5.540;2023-06-26T04:11:14;21.40;99.90
24262;DHT22;12385;51.412;5.540;2023-06-26T04:13:39;21.30;99.90
24262;DHT22;12385;51.412;5.540;2023-06-26T04:16:05;21.20;99.90
24262;DHT22;12385;51.412;5.540;2023-06-26T04:18:32;21.20;99.90
24262;DHT22;12385;51.412;5.540;2023-06-26T04:21:09;21.20;99.90
24262;DHT22;12385;51.412;5.540;2023-06-26T04:23:35;21.20;99.90
24262;DHT22;12385;51.412;5.540;2023-06-26T04:26:02;21.20;99.90
24262;DHT22;12385;51.412;5.540;2023-06-26T04:28:29;21.10;99.90
24262;DHT22;12385;51.412;5.540;2023-06-26T04:30:55;21.10;99.90
24262;DHT22;12385;51.412;5.540;2023-06-26T04:33:21;21.10;99.90
24262;DHT22;12385;51.412;5.540;2023-06-26T04:35:46;21.10;99.90
24262;DHT22;12385;51.412;5.540;2023-06-26T04:38:15;21.10;99.90
24262;DHT22;12385;51.412;5.540;2023-06-26T04:40:41;21.10;99.90
24262;DHT22;12385;51.412;5.540;2023-06-26T04:43:07;21.10;99.90
24262;DHT22;12385;51.412;5.540;2023-06-26T04:45:33;21.10;99.90
24262;DHT22;12385;51.412;5.540;2023-06-26T04:47:58;21.10;99.90
24262;DHT22;12385;51.412;5.540;2023-06-26T04:50:25;21.10;99.90
24262;DHT22;12385;51.412;5.540;2023-06-26T04:52:51;21.20;99.90
24262;DHT22;12385;51.412;5.540;2023-06-26T04:55:17;21.20;99.90
24262;DHT22;12385;51.412;5.540;2023-06-26T04:57:42;21.30;99.90
24262;DHT22;12385;51.412;5.540;2023-06-26T05:00:08;21.30;99.90
24262;DHT22;12385;51.412;5.540;2023-06-26T05:02:42;21.30;99.90
24262;DHT22;12385;51.412;5.540;2023-06-26T05:05:08;21.30;99.90
24262;DHT22;12385;51.412;5.540;2023-06-26T05:07:34;21.20;99.90
24262;DHT22;12385;51.412;5.540;2023-06-26T05:09:59;21.20;99.90
24262;DHT22;12385;51.412;5.540;2023-06-26T05:12:25;21.20;99.90
24262;DHT22;12385;51.412;5.540;2023-06-26T05:14:51;21.20;99.90
24262;DHT22;12385;51.412;5.540;2023-06-26T05:17:17;21.20;99.90
24262;DHT22;12385;51.412;5.540;2023-06-26T05:19:43;21.30;99.90
24262;DHT22;12385;51.412;5.540;2023-06-26T05:22:09;21.30;99.90
24262;DHT22;12385;51.412;5.540;2023-06-26T05:24:36;21.40;99.90
24262;DHT22;12385;51.412;5.540;2023-06-26T05:27:03;21.40;99.90
24262;DHT22;12385;51.412;5.540;2023-06-26T05:29:33;21.40;99.90
24262;DHT22;12385;51.412;5.540;2023-06-26T05:31:59;21.40;99.90
24262;DHT22;12385;51.412;5.540;2023-06-26T05:34:26;21.30;99.90
24262;DHT22;12385;51.412;5.540;2023-06-26T05:36:58;21.30;99.90
24262;DHT22;12385;51.412;5.540;2023-06-26T05:39:24;21.30;99.90
24262;DHT22;12385;51.412;5.540;2023-06-26T05:41:50;21.40;99.90
24262;DHT22;12385;51.412;5.540;2023-06-26T05:44:16;21.40;99.90
24262;DHT22;12385;51.412;5.540;2023-06-26T05:46:42;21.40;99.90
24262;DHT22;12385;51.412;5.540;2023-06-26T05:49:08;21.40;99.90
24262;DHT22;12385;51.412;5.540;2023-06-26T05:51:34;21.30;99.90
24262;DHT22;12385;51.412;5.540;2023-06-26T05:54:00;21.30;99.90
24262;DHT22;12385;51.412;5.540;2023-06-26T05:56:26;21.20;99.90
24262;DHT22;12385;51.412;5.540;2023-06-26T05:58:52;21.30;99.90
24262;DHT22;12385;51.412;5.540;2023-06-26T06:01:18;21.30;99.90
24262;DHT22;12385;51.412;5.540;2023-06-26T06:03:45;21.30;99.90
24262;DHT22;12385;51.412;5.540;2023-06-26T06:06:11;21.30;99.90
24262;DHT22;12385;51.412;5.540;2023-06-26T06:08:37;21.30;99.90
24262;DHT22;12385;51.412;5.540;2023-06-26T06:11:02;21.30;99.90
24262;DHT22;12385;51.412;5.540;2023-06-26T06:13:30;21.30;99.90
24262;DHT22;12385;51.412;5.540;2023-06-26T06:15:56;21.30;99.90
24262;DHT22;12385;51.412;5.540;2023-06-26T06:18:22;21.30;99.90
24262;DHT22;12385;51.412;5.540;2023-06-26T06:20:48;21.40;99.90
24262;DHT22;12385;51.412;5.540;2023-06-26T06:23:13;21.40;99.90
24262;DHT22;12385;51.412;5.540;2023-06-26T06:25:39;21.30;99.90
24262;DHT22;12385;51.412;5.540;2023-06-26T06:28:05;21.30;99.90
24262;DHT22;12385;51.412;5.540;2023-06-26T06:30:31;21.40;99.90
24262;DHT22;12385;51.412;5.540;2023-06-26T06:32:58;21.40;99.90
24262;DHT22;12385;51.412;5.540;2023-06-26T06:35:23;21.40;99.90
24262;DHT22;12385;51.412;5.540;2023-06-26T06:37:49;21.50;99.90
24262;DHT22;12385;51.412;5.540;2023-06-26T06:40:15;21.60;99.90
24262;DHT22;12385;51.412;5.540;2023-06-26T06:42:41;21.70;99.90
24262;DHT22;12385;51.412;5.540;2023-06-26T06:45:09;21.70;99.90
24262;DHT22;12385;51.412;5.540;2023-06-26T06:47:35;21.80;99.90
24262;DHT22;12385;51.412;5.540;2023-06-26T06:50:01;21.90;99.90
24262;DHT22;12385;51.412;5.540;2023-06-26T06:52:42;21.90;99.90
24262;DHT22;12385;51.412;5.540;2023-06-26T06:55:08;22.00;99.90
24262;DHT22;12385;51.412;5.540;2023-06-26T06:57:39;22.00;99.90
24262;DHT22;12385;51.412;5.540;2023-06-26T07:00:12;22.00;99.90
24262;DHT22;12385;51.412;5.540;2023-06-26T07:02:41;22.00;99.90
24262;DHT22;12385;51.412;5.540;2023-06-26T07:05:07;22.00;99.90
24262;DHT22;12385;51.412;5.540;2023-06-26T07:07:34;22.00;99.90
24262;DHT22;12385;51.412;5.540;2023-06-26T07:10:04;22.00;99.90
24262;DHT22;12385;51.412;5.540;2023-06-26T07:12:32;22.00;99.90
24262;DHT22;12385;51.412;5.540;2023-06-26T07:15:00;22.00;99.90
24262;DHT22;12385;51.412;5.540;2023-06-26T07:17:26;22.10;99.90
24262;DHT22;12385;51.412;5.540;2023-06-26T07:19:52;22.20;99.90
24262;DHT22;12385;51.412;5.540;2023-06-26T07:22:18;22.20;99.90
24262;DHT22;12385;51.412;5.540;2023-06-26T07:24:50;22.20;99.90
24262;DHT22;12385;51.412;5.540;2023-06-26T07:27:16;22.30;99.90
24262;DHT22;12385;51.412;5.540;2023-06-26T07:29:43;22.30;99.90
24262;DHT22;12385;51.412;5.540;2023-06-26T07:32:09;22.30;99.90
24262;DHT22;12385;51.412;5.540;2023-06-26T07:34:35;22.40;99.90
24262;DHT22;12385;51.412;5.540;2023-06-26T07:37:01;22.50;99.90
24262;DHT22;12385;51.412;5.540;2023-06-26T07:39:26;22.50;99.90
24262;DHT22;12385;51.412;5.540;2023-06-26T07:41:52;22.60;99.90
24262;DHT22;12385;51.412;5.540;2023-06-26T07:44:18;22.70;99.90
24262;DHT22;12385;51.412;5.540;2023-06-26T07:46:43;22.70;99.90
24262;DHT22;12385;51.412;5.540;2023-06-26T07:49:11;22.70;99.90
24262;DHT22;12385;51.412;5.540;2023-06-26T07:51:41;22.80;99.90
24262;DHT22;12385;51.412;5.540;2023-06-26T07:54:06;22.90;99.90
24262;DHT22;12385;51.412;5.540;2023-06-26T07:56:51;22.90;99.90
24262;DHT22;12385;51.412;5.540;2023-06-26T07:59:20;23.00;99.90
24262;DHT22;12385;51.412;5.540;2023-06-26T08:01:47;22.90;99.90
24262;DHT22;12385;51.412;5.540;2023-06-26T08:04:13;23.00;99.90
24262;DHT22;12385;51.412;5.540;2023-06-26T08:06:38;23.00;99.90
24262;DHT22;12385;51.412;5.540;2023-06-26T08:09:06;22.90;99.90
24262;DHT22;12385;51.412;5.540;2023-06-26T08:11:33;22.90;99.90
24262;DHT22;12385;51.412;5.540;2023-06-26T08:13:59;23.00;99.90
24262;DHT22;12385;51.412;5.540;2023-06-26T08:16:26;23.10;99.90
24262;DHT22;12385;51.412;5.540;2023-06-26T08:18:51;23.20;99.90
24262;DHT22;12385;51.412;5.540;2023-06-26T08:21:17;23.30;99.90
24262;DHT22;12385;51.412;5.540;2023-06-26T08:23:42;23.40;99.90
24262;DHT22;12385;51.412;5.540;2023-06-26T08:26:08;23.50;99.90
24262;DHT22;12385;51.412;5.540;2023-06-26T08:28:34;23.60;99.90
24262;DHT22;12385;51.412;5.540;2023-06-26T08:30:59;23.70;99.90
24262;DHT22;12385;51.412;5.540;2023-06-26T08:33:25;23.60;99.90
24262;DHT22;12385;51.412;5.540;2023-06-26T08:35:51;23.70;99.90
24262;DHT22;12385;51.412;5.540;2023-06-26T08:38:17;23.80;99.90
24262;DHT22;12385;51.412;5.540;2023-06-26T08:40:42;23.80;99.90
24262;DHT22;12385;51.412;5.540;2023-06-26T08:43:08;23.70;99.90
24262;DHT22;12385;51.412;5.540;2023-06-26T08:45:34;23.70;99.90
24262;DHT22;12385;51.412;5.540;2023-06-26T08:48:02;23.70;99.90
24262;DHT22;12385;51.412;5.540;2023-06-26T08:50:31;23.60;99.40
24262;DHT22;12385;51.412;5.540;2023-06-26T08:55:28;23.40;98.70
24262;DHT22;12385;51.412;5.540;2023-06-26T08:57:55;23.30;98.00
24262;DHT22;12385;51.412;5.540;2023-06-26T09:00:20;23.40;97.40
24262;DHT22;12385;51.412;5.540;2023-06-26T09:02:46;23.40;96.70
24262;DHT22;12385;51.412;5.540;2023-06-26T09:05:18;23.40;95.50
24262;DHT22;12385;51.412;5.540;2023-06-26T09:07:44;23.50;95.00
24262;DHT22;12385;51.412;5.540;2023-06-26T09:10:10;23.50;94.60
24262;DHT22;12385;51.412;5.540;2023-06-26T09:12:37;23.50;94.60
24262;DHT22;12385;51.412;5.540;2023-06-26T09:15:04;23.50;94.80
24262;DHT22;12385;51.412;5.540;2023-06-26T09:17:33;23.50;95.00
24262;DHT22;12385;51.412;5.540;2023-06-26T09:20:00;23.60;94.80
24262;DHT22;12385;51.412;5.540;2023-06-26T09:22:26;23.60;94.60
24262;DHT22;12385;51.412;5.540;2023-06-26T09:24:52;23.80;95.10
24262;DHT22;12385;51.412;5.540;2023-06-26T09:27:18;23.90;94.20
24262;DHT22;12385;51.412;5.540;2023-06-26T09:29:45;24.00;94.00
24262;DHT22;12385;51.412;5.540;2023-06-26T09:32:13;24.00;93.30
24262;DHT22;12385;51.412;5.540;2023-06-26T09:34:42;24.10;92.80
24262;DHT22;12385;51.412;5.540;2023-06-26T09:37:12;24.10;92.30
24262;DHT22;12385;51.412;5.540;2023-06-26T09:39:38;24.10;91.60
24262;DHT22;12385;51.412;5.540;2023-06-26T09:42:05;24.00;91.10
24262;DHT22;12385;51.412;5.540;2023-06-26T09:44:33;23.80;90.20
24262;DHT22;12385;51.412;5.540;2023-06-26T09:46:59;23.70;89.50
24262;DHT22;12385;51.412;5.540;2023-06-26T09:49:31;23.70;88.00
24262;DHT22;12385;51.412;5.540;2023-06-26T09:51:56;23.70;88.50
24262;DHT22;12385;51.412;5.540;2023-06-26T09:54:25;23.80;88.20
24262;DHT22;12385;51.412;5.540;2023-06-26T09:56:56;24.00;88.00
24262;DHT22;12385;51.412;5.540;2023-06-26T09:59:32;24.00;87.60
24262;DHT22;12385;51.412;5.540;2023-06-26T10:01:59;24.20;84.60
24262;DHT22;12385;51.412;5.540;2023-06-26T10:04:25;24.20;82.90
24262;DHT22;12385;51.412;5.540;2023-06-26T10:06:51;24.10;81.40
24262;DHT22;12385;51.412;5.540;2023-06-26T10:09:19;24.20;80.70
24262;DHT22;12385;51.412;5.540;2023-06-26T10:11:51;24.20;81.50
24262;DHT22;12385;51.412;5.540;2023-06-26T10:14:25;24.30;83.20
24262;DHT22;12385;51.412;5.540;2023-06-26T10:16:51;24.40;82.90
24262;DHT22;12385;51.412;5.540;2023-06-26T10:19:19;24.40;80.80
24262;DHT22;12385;51.412;5.540;2023-06-26T10:21:55;24.50;81.20
24262;DHT22;12385;51.412;5.540;2023-06-26T10:24:22;24.60;79.60
24262;DHT22;12385;51.412;5.540;2023-06-26T10:26:50;24.60;78.70
24262;DHT22;12385;51.412;5.540;2023-06-26T10:29:19;24.60;77.40
24262;DHT22;12385;51.412;5.540;2023-06-26T10:31:51;24.60;77.30
24262;DHT22;12385;51.412;5.540;2023-06-26T10:34:18;24.70;76.80
24262;DHT22;12385;51.412;5.540;2023-06-26T10:36:44;24.80;75.30
24262;DHT22;12385;51.412;5.540;2023-06-26T10:39:10;24.80;75.10
24262;DHT22;12385;51.412;5.540;2023-06-26T10:41:42;24.90;73.30
24262;DHT22;12385;51.412;5.540;2023-06-26T10:44:10;25.00;71.70
24262;DHT22;12385;51.412;5.540;2023-06-26T10:47:03;25.00;71.20
24262;DHT22;12385;51.412;5.540;2023-06-26T10:49:29;25.10;70.70
24262;DHT22;12385;51.412;5.540;2023-06-26T10:52:00;25.10;69.30
24262;DHT22;12385;51.412;5.540;2023-06-26T10:54:30;25.10;69.30
24262;DHT22;12385;51.412;5.540;2023-06-26T10:56:56;25.10;67.50
24262;DHT22;12385;51.412;5.540;2023-06-26T10:59:27;25.00;68.60
24262;DHT22;12385;51.412;5.540;2023-06-26T11:02:02;25.00;69.10
24262;DHT22;12385;51.412;5.540;2023-06-26T11:04:47;25.20;67.90
24262;DHT22;12385;51.412;5.540;2023-06-26T11:07:25;25.30;68.70
24262;DHT22;12385;51.412;5.540;2023-06-26T11:10:08;25.50;65.90
24262;DHT22;12385;51.412;5.540;2023-06-26T11:12:44;25.60;63.80
24262;DHT22;12385;51.412;5.540;2023-06-26T11:15:14;25.70;62.60
24262;DHT22;12385;51.412;5.540;2023-06-26T11:17:41;25.60;61.00
24262;DHT22;12385;51.412;5.540;2023-06-26T11:20:12;25.60;61.30
24262;DHT22;12385;51.412;5.540;2023-06-26T11:22:40;25.50;61.30
24262;DHT22;12385;51.412;5.540;2023-06-26T11:25:06;25.40;61.00
24262;DHT22;12385;51.412;5.540;2023-06-26T11:27:37;25.40;61.00
24262;DHT22;12385;51.412;5.540;2023-06-26T11:30:07;25.40;61.10
24262;DHT22;12385;51.412;5.540;2023-06-26T11:32:38;25.60;62.00
24262;DHT22;12385;51.412;5.540;2023-06-26T11:35:04;25.90;61.00
24262;DHT22;12385;51.412;5.540;2023-06-26T11:37:36;26.10;62.00
24262;DHT22;12385;51.412;5.540;2023-06-26T11:40:18;26.20;61.40
24262;DHT22;12385;51.412;5.540;2023-06-26T11:42:45;26.30;60.80
24262;DHT22;12385;51.412;5.540;2023-06-26T11:45:10;26.30;60.20
24262;DHT22;12385;51.412;5.540;2023-06-26T11:47:38;26.40;59.70
24262;DHT22;12385;51.412;5.540;2023-06-26T11:50:04;26.50;60.70
24262;DHT22;12385;51.412;5.540;2023-06-26T11:52:32;26.50;60.30
24262;DHT22;12385;51.412;5.540;2023-06-26T11:54:58;26.40;60.40
24262;DHT22;12385;51.412;5.540;2023-06-26T11:57:24;26.20;59.10
24262;DHT22;12385;51.412;5.540;2023-06-26T11:59:51;26.00;59.30
24262;DHT22;12385;51.412;5.540;2023-06-26T12:02:18;25.70;59.70
24262;DHT22;12385;51.412;5.540;2023-06-26T12:04:44;25.60;61.00
24262;DHT22;12385;51.412;5.540;2023-06-26T12:07:11;25.40;60.70
24262;DHT22;12385;51.412;5.540;2023-06-26T12:09:46;25.30;62.10
24262;DHT22;12385;51.412;5.540;2023-06-26T12:12:14;25.20;61.50
24262;DHT22;12385;51.412;5.540;2023-06-26T12:14:40;25.00;62.40
24262;DHT22;12385;51.412;5.540;2023-06-26T12:17:10;25.20;63.10
24262;DHT22;12385;51.412;5.540;2023-06-26T12:19:42;25.40;63.00
24262;DHT22;12385;51.412;5.540;2023-06-26T12:22:09;25.60;63.20
24262;DHT22;12385;51.412;5.540;2023-06-26T12:24:38;25.90;61.70
24262;DHT22;12385;51.412;5.540;2023-06-26T12:27:08;26.20;61.30
24262;DHT22;12385;51.412;5.540;2023-06-26T12:29:35;26.40;59.40
24262;DHT22;12385;51.412;5.540;2023-06-26T12:32:01;26.60;59.40
24262;DHT22;12385;51.412;5.540;2023-06-26T12:34:34;26.60;59.20
24262;DHT22;12385;51.412;5.540;2023-06-26T12:37:02;26.40;58.60
24262;DHT22;12385;51.412;5.540;2023-06-26T12:39:29;26.10;58.80
24262;DHT22;12385;51.412;5.540;2023-06-26T12:41:57;25.80;58.90
24262;DHT22;12385;51.412;5.540;2023-06-26T12:44:26;25.70;59.30
24262;DHT22;12385;51.412;5.540;2023-06-26T12:47:01;25.80;57.30
24262;DHT22;12385;51.412;5.540;2023-06-26T12:49:34;25.80;56.10
24262;DHT22;12385;51.412;5.540;2023-06-26T12:52:06;25.90;54.90
24262;DHT22;12385;51.412;5.540;2023-06-26T12:54:36;26.20;54.30
24262;DHT22;12385;51.412;5.540;2023-06-26T12:57:02;26.50;54.20
24262;DHT22;12385;51.412;5.540;2023-06-26T12:59:30;26.70;54.20
24262;DHT22;12385;51.412;5.540;2023-06-26T13:01:56;27.10;54.00
24262;DHT22;12385;51.412;5.540;2023-06-26T13:04:22;27.40;52.60
24262;DHT22;12385;51.412;5.540;2023-06-26T13:06:49;27.80;52.30
24262;DHT22;12385;51.412;5.540;2023-06-26T13:09:15;28.20;52.40
24262;DHT22;12385;51.412;5.540;2023-06-26T13:11:41;28.60;52.40
24262;DHT22;12385;51.412;5.540;2023-06-26T13:14:09;28.70;52.20
24262;DHT22;12385;51.412;5.540;2023-06-26T13:16:36;28.50;51.50
24262;DHT22;12385;51.412;5.540;2023-06-26T13:19:02;28.20;52.40
24262;DHT22;12385;51.412;5.540;2023-06-26T13:21:28;28.10;53.30
24262;DHT22;12385;51.412;5.540;2023-06-26T13:23:54;28.10;53.40
24262;DHT22;12385;51.412;5.540;2023-06-26T13:26:20;28.00;52.10
24262;DHT22;12385;51.412;5.540;2023-06-26T13:28:47;27.90;52.10
24262;DHT22;12385;51.412;5.540;2023-06-26T13:31:14;27.90;51.50
24262;DHT22;12385;51.412;5.540;2023-06-26T13:33:39;27.80;51.70
24262;DHT22;12385;51.412;5.540;2023-06-26T13:36:06;27.70;51.50
24262;DHT22;12385;51.412;5.540;2023-06-26T13:38:33;27.80;51.30
24262;DHT22;12385;51.412;5.540;2023-06-26T13:40:59;27.80;51.70
24262;DHT22;12385;51.412;5.540;2023-06-26T13:43:27;27.60;51.50
24262;DHT22;12385;51.412;5.540;2023-06-26T13:45:54;27.90;51.60
24262;DHT22;12385;51.412;5.540;2023-06-26T13:48:20;28.10;50.70
24262;DHT22;12385;51.412;5.540;2023-06-26T13:50:49;28.00;50.00
24262;DHT22;12385;51.412;5.540;2023-06-26T13:53:14;27.80;50.10
24262;DHT22;12385;51.412;5.540;2023-06-26T13:55:40;27.80;50.10
24262;DHT22;12385;51.412;5.540;2023-06-26T13:58:07;28.20;50.20
24262;DHT22;12385;51.412;5.540;2023-06-26T14:00:33;28.50;49.30
24262;DHT22;12385;51.412;5.540;2023-06-26T14:03:00;28.80;48.80
24262;DHT22;12385;51.412;5.540;2023-06-26T14:05:26;29.00;47.70
24262;DHT22;12385;51.412;5.540;2023-06-26T14:07:52;29.20;47.50
24262;DHT22;12385;51.412;5.540;2023-06-26T14:10:20;29.70;47.10
24262;DHT22;12385;51.412;5.540;2023-06-26T14:12:45;29.90;46.70
24262;DHT22;12385;51.412;5.540;2023-06-26T14:15:12;29.80;46.70
24262;DHT22;12385;51.412;5.540;2023-06-26T14:17:37;29.40;46.60
24262;DHT22;12385;51.412;5.540;2023-06-26T14:20:09;28.90;46.80
24262;DHT22;12385;51.412;5.540;2023-06-26T14:22:43;28.40;46.70
24262;DHT22;12385;51.412;5.540;2023-06-26T14:25:10;28.00;47.00
24262;DHT22;12385;51.412;5.540;2023-06-26T14:27:36;27.90;47.70
24262;DHT22;12385;51.412;5.540;2023-06-26T14:30:03;28.20;48.50
24262;DHT22;12385;51.412;5.540;2023-06-26T14:32:29;28.70;47.30
24262;DHT22;12385;51.412;5.540;2023-06-26T14:34:56;29.10;47.60
24262;DHT22;12385;51.412;5.540;2023-06-26T14:37:22;29.60;47.30
24262;DHT22;12385;51.412;5.540;2023-06-26T14:39:49;30.00;47.70
24262;DHT22;12385;51.412;5.540;2023-06-26T14:42:14;30.20;45.80
24262;DHT22;12385;51.412;5.540;2023-06-26T14:44:40;30.10;45.80
24262;DHT22;12385;51.412;5.540;2023-06-26T14:47:05;30.40;45.50
24262;DHT22;12385;51.412;5.540;2023-06-26T14:49:31;30.70;45.20
24262;DHT22;12385;51.412;5.540;2023-06-26T14:51:57;30.90;46.30
24262;DHT22;12385;51.412;5.540;2023-06-26T14:54:23;31.30;45.10
24262;DHT22;12385;51.412;5.540;2023-06-26T14:56:49;31.50;45.20
24262;DHT22;12385;51.412;5.540;2023-06-26T14:59:15;31.40;44.40
24262;DHT22;12385;51.412;5.540;2023-06-26T15:01:40;30.80;44.80
24262;DHT22;12385;51.412;5.540;2023-06-26T15:04:06;30.20;45.30
24262;DHT22;12385;51.412;5.540;2023-06-26T15:06:33;29.80;44.80
24262;DHT22;12385;51.412;5.540;2023-06-26T15:08:59;29.40;45.20
24262;DHT22;12385;51.412;5.540;2023-06-26T15:11:26;28.80;45.50
24262;DHT22;12385;51.412;5.540;2023-06-26T15:13:52;28.40;46.00
24262;DHT22;12385;51.412;5.540;2023-06-26T15:16:18;27.80;46.80
24262;DHT22;12385;51.412;5.540;2023-06-26T15:18:44;27.40;47.30
24262;DHT22;12385;51.412;5.540;2023-06-26T15:21:10;27.10;47.80
24262;DHT22;12385;51.412;5.540;2023-06-26T15:23:36;26.90;48.30
24262;DHT22;12385;51.412;5.540;2023-06-26T15:26:02;26.80;48.70
24262;DHT22;12385;51.412;5.540;2023-06-26T15:28:27;26.70;48.80
24262;DHT22;12385;51.412;5.540;2023-06-26T15:30:53;26.60;49.10
24262;DHT22;12385;51.412;5.540;2023-06-26T15:33:19;26.60;49.40
24262;DHT22;12385;51.412;5.540;2023-06-26T15:35:44;26.40;49.60
24262;DHT22;12385;51.412;5.540;2023-06-26T15:38:11;26.40;50.00
24262;DHT22;12385;51.412;5.540;2023-06-26T15:40:37;26.50;50.10